sensor_id;sensor_type;location;lat;lon;timestamp;pressure;altitude;pressure_sealevel;temperature;humidity
35331;BME280;21441;52.190;20.910;2022-11-03T00:02:02;100678.75;;;8.67;100.00
35331;BME280;21441;52.190;20.910;2022-11-03T00:04:30;100683.94;;;8.68;100.00
35331;BME280;21441;52.190;20.910;2022-11-03T00:06:57;100686.44;;;8.70;100.00
35331;BME280;21441;52.190;20.910;2022-11-03T00:09:24;100681.56;;;8.65;100.00
35331;BME280;21441;52.190;20.910;2022-11-03T00:11:51;100683.38;;;8.65;100.00
35331;BME280;21441;52.190;20.910;2022-11-03T00:14:18;100679.88;;;8.64;100.00
35331;BME280;21441;52.190;20.910;2022-11-03T00:16:45;100681.03;;;8.62;100.00
35331;BME280;21441;52.190;20.910;2022-11-03T00:19:12;100675.16;;;8.58;100.00
35331;BME280;21441;52.190;20.910;2022-11-03T00:21:41;100684.13;;;8.57;100.00
35331;BME280;21441;52.190;20.910;2022-11-03T00:24:08;100683.00;;;8.60;100.00
35331;BME280;21441;52.190;20.910;2022-11-03T00:26:35;100685.28;;;8.45;100.00
35331;BME280;21441;52.190;20.910;2022-11-03T00:29:05;100695.22;;;8.43;100.00
35331;BME280;21441;52.190;20.910;2022-11-03T00:31:33;100695.13;;;8.35;100.00
35331;BME280;21441;52.190;20.910;2022-11-03T00:34:01;100693.44;;;8.34;100.00
35331;BME280;21441;52.190;20.910;2022-11-03T00:36:28;100690.75;;;8.34;100.00
35331;BME280;21441;52.190;20.910;2022-11-03T00:38:57;100692.91;;;8.30;100.00
35331;BME280;21441;52.190;20.910;2022-11-03T00:41:24;100695.31;;;8.23;100.00
35331;BME280;21441;52.190;20.910;2022-11-03T00:43:51;100700.34;;;8.17;100.00
35331;BME280;21441;52.190;20.910;2022-11-03T00:46:18;100696.19;;;8.04;100.00
35331;BME280;21441;52.190;20.910;2022-11-03T00:48:45;100708.72;;;8.12;100.00
35331;BME280;21441;52.190;20.910;2022-11-03T00:51:14;100707.19;;;8.10;100.00
35331;BME280;21441;52.190;20.910;2022-11-03T00:53:42;100699.66;;;8.05;100.00
35331;BME280;21441;52.190;20.910;2022-11-03T00:56:12;100702.47;;;8.03;100.00
35331;BME280;21441;52.190;20.910;2022-11-03T00:58:39;100696.75;;;7.98;100.00
35331;BME280;21441;52.190;20.910;2022-11-03T01:01:09;100708.47;;;8.05;100.00
35331;BME280;21441;52.190;20.910;2022-11-03T01:03:38;100700.66;;;7.94;100.00
35331;BME280;21441;52.190;20.910;2022-11-03T01:06:06;100705.72;;;7.97;100.00
35331;BME280;21441;52.190;20.910;2022-11-03T01:08:51;100710.59;;;7.92;100.00
35331;BME280;21441;52.190;20.910;2022-11-03T01:11:21;100721.22;;;7.92;100.00
35331;BME280;21441;52.190;20.910;2022-11-03T01:14:06;100716.75;;;7.93;100.00
35331;BME280;21441;52.190;20.910;2022-11-03T01:16:33;100720.69;;;7.89;100.00
35331;BME280;21441;52.190;20.910;2022-11-03T01:19:01;100709.19;;;7.88;100.00
35331;BME280;21441;52.190;20.910;2022-11-03T01:21:27;100712.72;;;7.79;100.00
35331;BME280;21441;52.190;20.910;2022-11-03T01:23:55;100723.50;;;7.77;100.00
35331;BME280;21441;52.190;20.910;2022-11-03T01:26:23;100715.09;;;7.72;100.00
35331;BME280;21441;52.190;20.910;2022-11-03T01:28:50;100726.28;;;7.66;100.00
35331;BME280;21441;52.190;20.910;2022-11-03T01:31:18;100722.94;;;7.54;100.00
35331;BME280;21441;52.190;20.910;2022-11-03T01:33:46;100724.03;;;7.61;100.00
35331;BME280;21441;52.190;20.910;2022-11-03T01:36:14;100725.47;;;7.56;100.00
35331;BME280;21441;52.190;20.910;2022-11-03T01:38:42;100700.44;;;7.39;100.00
35331;BME280;21441;52.190;20.910;2022-11-03T01:41:15;100727.41;;;7.54;100.00
35331;BME280;21441;52.190;20.910;2022-11-03T01:43:46;100719.88;;;7.49;100.00
35331;BME280;21441;52.190;20.910;2022-11-03T01:46:16;100724.72;;;7.44;100.00
35331;BME280;21441;52.190;20.910;2022-11-03T01:48:47;100736.34;;;7.43;100.00
35331;BME280;21441;52.190;20.910;2022-11-03T01:51:18;100705.31;;;7.34;100.00
35331;BME280;21441;52.190;20.910;2022-11-03T01:53:50;100724.88;;;7.33;100.00
35331;BME280;21441;52.190;20.910;2022-11-03T01:56:20;100726.56;;;7.34;100.00
35331;BME280;21441;52.190;20.910;2022-11-03T01:58:52;100723.63;;;7.27;100.00
35331;BME280;21441;52.190;20.910;2022-11-03T02:01:20;100722.75;;;7.27;100.00
35331;BME280;21441;52.190;20.910;2022-11-03T02:03:50;100717.91;;;7.32;100.00
35331;BME280;21441;52.190;20.910;2022-11-03T02:06:22;100720.97;;;7.27;100.00
35331;BME280;21441;52.190;20.910;2022-11-03T02:08:52;100719.41;;;7.15;100.00
35331;BME280;21441;52.190;20.910;2022-11-03T02:11:20;100731.97;;;7.13;100.00
35331;BME280;21441;52.190;20.910;2022-11-03T02:14:10;100725.00;;;7.12;100.00
35331;BME280;21441;52.190;20.910;2022-11-03T02:16:39;100728.59;;;7.11;100.00
35331;BME280;21441;52.190;20.910;2022-11-03T02:19:14;100723.03;;;7.14;100.00
35331;BME280;21441;52.190;20.910;2022-11-03T02:21:48;100727.91;;;7.09;100.00
35331;BME280;21441;52.190;20.910;2022-11-03T02:24:23;100730.00;;;7.05;100.00
35331;BME280;21441;52.190;20.910;2022-11-03T02:26:55;100732.22;;;7.00;100.00
35331;BME280;21441;52.190;20.910;2022-11-03T02:29:22;100727.19;;;7.07;100.00
35331;BME280;21441;52.190;20.910;2022-11-03T02:31:54;100727.91;;;7.09;100.00
35331;BME280;21441;52.190;20.910;2022-11-03T02:34:27;100731.25;;;7.11;100.00
35331;BME280;21441;52.190;20.910;2022-11-03T02:37:00;100722.59;;;6.99;100.00
35331;BME280;21441;52.190;20.910;2022-11-03T02:39:34;100728.16;;;6.96;100.00
35331;BME280;21441;52.190;20.910;2022-11-03T02:42:04;100729.84;;;6.97;100.00
35331;BME280;21441;52.190;20.910;2022-11-03T02:44:33;100732.22;;;7.00;100.00
35331;BME280;21441;52.190;20.910;2022-11-03T02:47:04;100730.13;;;6.94;100.00
35331;BME280;21441;52.190;20.910;2022-11-03T02:49:37;100729.13;;;6.95;100.00
35331;BME280;21441;52.190;20.910;2022-11-03T02:52:05;100731.91;;;6.93;100.00
35331;BME280;21441;52.190;20.910;2022-11-03T02:54:36;100733.31;;;6.97;100.00
35331;BME280;21441;52.190;20.910;2022-11-03T02:57:10;100744.94;;;6.96;100.00
35331;BME280;21441;52.190;20.910;2022-11-03T02:59:49;100740.44;;;6.97;100.00
35331;BME280;21441;52.190;20.910;2022-11-03T03:02:23;100729.94;;;6.86;100.00
35331;BME280;21441;52.190;20.910;2022-11-03T03:04:55;100742.28;;;6.96;100.00
35331;BME280;21441;52.190;20.910;2022-11-03T03:07:25;100745.47;;;6.90;100.00
35331;BME280;21441;52.190;20.910;2022-11-03T03:09:57;100742.22;;;6.87;100.00
35331;BME280;21441;52.190;20.910;2022-11-03T03:12:27;100738.34;;;6.91;100.00
35331;BME280;21441;52.190;20.910;2022-11-03T03:14:57;100741.22;;;6.78;100.00
35331;BME280;21441;52.190;20.910;2022-11-03T03:17:29;100753.81;;;6.86;100.00
35331;BME280;21441;52.190;20.910;2022-11-03T03:20:02;100749.16;;;6.78;100.00
35331;BME280;21441;52.190;20.910;2022-11-03T03:22:35;100747.75;;;6.74;100.00
35331;BME280;21441;52.190;20.910;2022-11-03T03:25:08;100751.13;;;6.76;100.00
35331;BME280;21441;52.190;20.910;2022-11-03T03:27:41;100749.03;;;6.79;100.00
35331;BME280;21441;52.190;20.910;2022-11-03T03:30:10;100744.28;;;6.73;100.00
35331;BME280;21441;52.190;20.910;2022-11-03T03:32:39;100749.84;;;6.70;100.00
35331;BME280;21441;52.190;20.910;2022-11-03T03:35:13;100748.16;;;6.69;100.00
35331;BME280;21441;52.190;20.910;2022-11-03T03:37:46;100745.38;;;6.61;100.00
35331;BME280;21441;52.190;20.910;2022-11-03T03:40:18;100740.06;;;6.61;100.00
35331;BME280;21441;52.190;20.910;2022-11-03T03:42:49;100753.69;;;6.56;100.00
35331;BME280;21441;52.190;20.910;2022-11-03T03:45:18;100763.22;;;6.59;100.00
35331;BME280;21441;52.190;20.910;2022-11-03T03:47:46;100760.16;;;6.64;100.00
35331;BME280;21441;52.190;20.910;2022-11-03T03:50:13;100764.34;;;6.66;100.00
35331;BME280;21441;52.190;20.910;2022-11-03T03:52:40;100764.75;;;6.61;100.00
35331;BME280;21441;52.190;20.910;2022-11-03T03:55:14;100763.34;;;6.57;100.00
35331;BME280;21441;52.190;20.910;2022-11-03T03:57:42;100769.97;;;6.73;100.00
35331;BME280;21441;52.190;20.910;2022-11-03T04:00:13;100770.06;;;6.61;100.00
35331;BME280;21441;52.190;20.910;2022-11-03T04:02:41;100734.28;;;6.25;100.00
35331;BME280;21441;52.190;20.910;2022-11-03T04:05:08;100774.03;;;6.46;100.00
35331;BME280;21441;52.190;20.910;2022-11-03T04:07:35;100769.84;;;6.44;100.00
35331;BME280;21441;52.190;20.910;2022-11-03T04:10:16;100776.47;;;6.38;100.00
35331;BME280;21441;52.190;20.910;2022-11-03T04:12:43;100774.34;;;6.32;100.00
35331;BME280;21441;52.190;20.910;2022-11-03T04:15:30;100773.94;;;6.36;100.00
35331;BME280;21441;52.190;20.910;2022-11-03T04:18:15;100774.25;;;6.43;100.00
35331;BME280;21441;52.190;20.910;2022-11-03T04:21:00;100769.88;;;6.53;100.00
35331;BME280;21441;52.190;20.910;2022-11-03T04:23:44;100771.16;;;6.59;100.00
35331;BME280;21441;52.190;20.910;2022-11-03T04:26:13;100770.53;;;6.46;100.00
35331;BME280;21441;52.190;20.910;2022-11-03T04:28:40;100768.59;;;6.48;100.00
35331;BME280;21441;52.190;20.910;2022-11-03T04:31:11;100776.72;;;6.56;100.00
35331;BME280;21441;52.190;20.910;2022-11-03T04:33:38;100773.44;;;6.43;100.00
35331;BME280;21441;52.190;20.910;2022-11-03T04:36:11;100777.06;;;6.42;100.00
35331;BME280;21441;52.190;20.910;2022-11-03T04:38:39;100780.34;;;6.34;100.00
35331;BME280;21441;52.190;20.910;2022-11-03T04:41:13;100784.13;;;6.31;100.00
35331;BME280;21441;52.190;20.910;2022-11-03T04:43:41;100788.06;;;6.16;100.00
35331;BME280;21441;52.190;20.910;2022-11-03T04:46:12;100784.06;;;6.22;100.00
35331;BME280;21441;52.190;20.910;2022-11-03T04:48:42;100780.09;;;6.16;100.00
35331;BME280;21441;52.190;20.910;2022-11-03T04:51:12;100787.56;;;6.22;100.00
35331;BME280;21441;52.190;20.910;2022-11-03T04:53:53;100781.00;;;6.05;100.00
35331;BME280;21441;52.190;20.910;2022-11-03T04:56:23;100785.53;;;6.14;100.00
35331;BME280;21441;52.190;20.910;2022-11-03T04:58:51;100785.91;;;6.10;100.00
35331;BME280;21441;52.190;20.910;2022-11-03T05:01:21;100786.31;;;6.05;100.00
35331;BME280;21441;52.190;20.910;2022-11-03T05:03:49;100787.09;;;5.96;100.00
35331;BME280;21441;52.190;20.910;2022-11-03T05:06:19;100788.38;;;5.90;100.00
35331;BME280;21441;52.190;20.910;2022-11-03T05:08:50;100794.22;;;5.84;100.00
35331;BME280;21441;52.190;20.910;2022-11-03T05:11:19;100793.50;;;5.82;100.00
35331;BME280;21441;52.190;20.910;2022-11-03T05:13:47;100796.53;;;5.77;100.00
35331;BME280;21441;52.190;20.910;2022-11-03T05:16:15;100792.63;;;5.82;100.00
35331;BME280;21441;52.190;20.910;2022-11-03T05:18:45;100801.94;;;5.76;100.00
35331;BME280;21441;52.190;20.910;2022-11-03T05:21:16;100789.41;;;5.78;100.00
35331;BME280;21441;52.190;20.910;2022-11-03T05:23:46;100784.13;;;5.78;100.00
35331;BME280;21441;52.190;20.910;2022-11-03T05:26:14;100797.75;;;5.73;100.00
35331;BME280;21441;52.190;20.910;2022-11-03T05:28:44;100793.78;;;5.68;100.00
35331;BME280;21441;52.190;20.910;2022-11-03T05:31:23;100792.84;;;5.69;100.00
35331;BME280;21441;52.190;20.910;2022-11-03T05:33:56;100792.22;;;5.65;100.00
35331;BME280;21441;52.190;20.910;2022-11-03T05:36:24;100791.78;;;5.60;100.00
35331;BME280;21441;52.190;20.910;2022-11-03T05:38:55;100801.72;;;5.68;100.00
35331;BME280;21441;52.190;20.910;2022-11-03T05:41:25;100790.41;;;5.66;100.00
35331;BME280;21441;52.190;20.910;2022-11-03T05:43:57;100798.63;;;5.63;100.00
35331;BME280;21441;52.190;20.910;2022-11-03T05:46:26;100790.56;;;5.53;100.00
35331;BME280;21441;52.190;20.910;2022-11-03T05:48:57;100798.03;;;5.59;100.00
35331;BME280;21441;52.190;20.910;2022-11-03T05:51:28;100801.75;;;5.56;100.00
35331;BME280;21441;52.190;20.910;2022-11-03T05:54:01;100803.25;;;5.49;100.00
35331;BME280;21441;52.190;20.910;2022-11-03T05:56:30;100806.47;;;5.53;100.00
35331;BME280;21441;52.190;20.910;2022-11-03T05:58:58;100815.44;;;5.62;100.00
35331;BME280;21441;52.190;20.910;2022-11-03T06:01:29;100806.78;;;5.59;100.00
35331;BME280;21441;52.190;20.910;2022-11-03T06:03:59;100805.38;;;5.55;100.00
35331;BME280;21441;52.190;20.910;2022-11-03T06:06:34;100810.31;;;5.60;100.00
35331;BME280;21441;52.190;20.910;2022-11-03T06:09:10;100807.50;;;5.62;100.00
35331;BME280;21441;52.190;20.910;2022-11-03T06:11:40;100812.41;;;5.77;100.00
35331;BME280;21441;52.190;20.910;2022-11-03T06:14:12;100809.06;;;5.75;100.00
35331;BME280;21441;52.190;20.910;2022-11-03T06:16:41;100817.19;;;5.84;100.00
35331;BME280;21441;52.190;20.910;2022-11-03T06:19:24;100818.63;;;5.88;100.00
35331;BME280;21441;52.190;20.910;2022-11-03T06:21:54;100826.94;;;5.94;100.00
35331;BME280;21441;52.190;20.910;2022-11-03T06:24:27;100817.53;;;5.90;100.00
35331;BME280;21441;52.190;20.910;2022-11-03T06:26:55;100816.09;;;5.97;100.00
35331;BME280;21441;52.190;20.910;2022-11-03T06:29:23;100812.56;;;6.08;100.00
35331;BME280;21441;52.190;20.910;2022-11-03T06:31:53;100814.88;;;6.23;100.00
35331;BME280;21441;52.190;20.910;2022-11-03T06:34:31;100816.63;;;6.54;100.00
35331;BME280;21441;52.190;20.910;2022-11-03T06:37:07;100821.66;;;6.88;100.00
35331;BME280;21441;52.190;20.910;2022-11-03T06:39:36;100820.50;;;7.12;100.00
35331;BME280;21441;52.190;20.910;2022-11-03T06:42:10;100820.03;;;7.47;100.00
35331;BME280;21441;52.190;20.910;2022-11-03T06:44:39;100821.06;;;7.75;100.00
35331;BME280;21441;52.190;20.910;2022-11-03T06:47:15;100817.56;;;7.94;100.00
35331;BME280;21441;52.190;20.910;2022-11-03T06:49:47;100830.97;;;8.32;100.00
35331;BME280;21441;52.190;20.910;2022-11-03T06:52:22;100834.19;;;8.45;100.00
35331;BME280;21441;52.190;20.910;2022-11-03T06:54:54;100837.25;;;8.70;100.00
35331;BME280;21441;52.190;20.910;2022-11-03T06:57:21;100839.47;;;8.64;100.00
35331;BME280;21441;52.190;20.910;2022-11-03T06:59:49;100828.59;;;8.95;100.00
35331;BME280;21441;52.190;20.910;2022-11-03T07:02:45;100828.16;;;9.55;100.00
35331;BME280;21441;52.190;20.910;2022-11-03T07:05:20;100829.38;;;9.61;100.00
35331;BME280;21441;52.190;20.910;2022-11-03T07:07:48;100833.56;;;9.63;100.00
35331;BME280;21441;52.190;20.910;2022-11-03T07:10:15;100833.94;;;10.22;100.00
35331;BME280;21441;52.190;20.910;2022-11-03T07:12:42;100832.59;;;10.62;100.00
35331;BME280;21441;52.190;20.910;2022-11-03T07:15:19;100828.03;;;11.15;100.00
35331;BME280;21441;52.190;20.910;2022-11-03T07:17:48;100825.69;;;11.63;100.00
35331;BME280;21441;52.190;20.910;2022-11-03T07:20:17;100831.78;;;12.14;99.97
35331;BME280;21441;52.190;20.910;2022-11-03T07:22:45;100825.41;;;12.64;93.11
35331;BME280;21441;52.190;20.910;2022-11-03T07:25:15;100820.28;;;13.02;85.89
35331;BME280;21441;52.190;20.910;2022-11-03T07:27:45;100820.09;;;13.51;82.25
35331;BME280;21441;52.190;20.910;2022-11-03T07:30:16;100804.13;;;14.04;72.87
35331;BME280;21441;52.190;20.910;2022-11-03T07:32:44;100809.78;;;13.63;70.55
35331;BME280;21441;52.190;20.910;2022-11-03T07:35:27;100809.75;;;13.40;72.02
35331;BME280;21441;52.190;20.910;2022-11-03T07:37:56;100814.97;;;12.86;75.07
35331;BME280;21441;52.190;20.910;2022-11-03T07:40:27;100808.91;;;12.20;80.72
35331;BME280;21441;52.190;20.910;2022-11-03T07:42:56;100808.03;;;11.86;84.21
35331;BME280;21441;52.190;20.910;2022-11-03T07:45:35;100809.84;;;11.77;85.34
35331;BME280;21441;52.190;20.910;2022-11-03T07:48:21;100816.53;;;11.82;85.00
35331;BME280;21441;52.190;20.910;2022-11-03T07:50:53;100812.75;;;11.33;88.80
35331;BME280;21441;52.190;20.910;2022-11-03T07:53:24;100816.19;;;11.68;87.51
35331;BME280;21441;52.190;20.910;2022-11-03T07:55:56;100809.00;;;11.69;85.22
35331;BME280;21441;52.190;20.910;2022-11-03T07:58:32;100817.34;;;11.74;86.76
35331;BME280;21441;52.190;20.910;2022-11-03T08:01:07;100811.69;;;11.77;84.31
35331;BME280;21441;52.190;20.910;2022-11-03T08:03:46;100809.03;;;11.77;84.14
35331;BME280;21441;52.190;20.910;2022-11-03T08:06:15;100810.00;;;11.76;83.88
35331;BME280;21441;52.190;20.910;2022-11-03T08:08:42;100819.50;;;11.62;85.55
35331;BME280;21441;52.190;20.910;2022-11-03T08:11:10;100815.03;;;11.79;86.05
35331;BME280;21441;52.190;20.910;2022-11-03T08:13:37;100812.19;;;11.72;84.71
35331;BME280;21441;52.190;20.910;2022-11-03T08:16:05;100811.22;;;11.23;86.22
35331;BME280;21441;52.190;20.910;2022-11-03T08:18:31;100814.25;;;11.36;86.17
35331;BME280;21441;52.190;20.910;2022-11-03T08:20:58;100803.25;;;11.31;88.61
35331;BME280;21441;52.190;20.910;2022-11-03T08:23:27;100812.41;;;11.36;89.04
35331;BME280;21441;52.190;20.910;2022-11-03T08:25:54;100799.97;;;11.62;86.24
35331;BME280;21441;52.190;20.910;2022-11-03T08:28:21;100801.84;;;11.86;84.65
35331;BME280;21441;52.190;20.910;2022-11-03T08:30:48;100802.56;;;12.12;83.83
35331;BME280;21441;52.190;20.910;2022-11-03T08:33:15;100809.88;;;12.43;79.83
35331;BME280;21441;52.190;20.910;2022-11-03T08:35:42;100803.66;;;12.59;78.64
35331;BME280;21441;52.190;20.910;2022-11-03T08:38:09;100803.91;;;12.89;77.18
35331;BME280;21441;52.190;20.910;2022-11-03T08:40:37;100803.50;;;13.48;73.18
35331;BME280;21441;52.190;20.910;2022-11-03T08:43:04;100792.84;;;14.84;66.13
35331;BME280;21441;52.190;20.910;2022-11-03T08:45:31;100788.84;;;16.89;57.23
35331;BME280;21441;52.190;20.910;2022-11-03T08:47:58;100780.03;;;18.43;51.29
35331;BME280;21441;52.190;20.910;2022-11-03T08:50:25;100778.56;;;19.71;47.96
35331;BME280;21441;52.190;20.910;2022-11-03T08:52:52;100763.94;;;20.72;45.42
35331;BME280;21441;52.190;20.910;2022-11-03T08:55:19;100762.41;;;21.62;43.07
35331;BME280;21441;52.190;20.910;2022-11-03T08:57:47;100752.81;;;22.72;41.72
35331;BME280;21441;52.190;20.910;2022-11-03T09:00:14;100749.19;;;23.76;39.53
35331;BME280;21441;52.190;20.910;2022-11-03T09:02:42;100745.78;;;24.76;36.67
35331;BME280;21441;52.190;20.910;2022-11-03T09:05:09;100742.31;;;25.51;35.13
35331;BME280;21441;52.190;20.910;2022-11-03T09:07:37;100747.63;;;25.14;35.73
35331;BME280;21441;52.190;20.910;2022-11-03T09:10:06;100746.28;;;26.93;33.40
35331;BME280;21441;52.190;20.910;2022-11-03T09:12:33;100739.13;;;27.86;32.09
35331;BME280;21441;52.190;20.910;2022-11-03T09:15:02;100738.47;;;29.31;30.29
35331;BME280;21441;52.190;20.910;2022-11-03T09:17:29;100731.47;;;29.44;30.05
35331;BME280;21441;52.190;20.910;2022-11-03T09:19:56;100731.25;;;30.09;28.86
35331;BME280;21441;52.190;20.910;2022-11-03T09:22:23;100717.84;;;30.32;27.91
35331;BME280;21441;52.190;20.910;2022-11-03T09:24:50;100723.25;;;31.09;27.58
35331;BME280;21441;52.190;20.910;2022-11-03T09:27:17;100725.03;;;31.90;26.28
35331;BME280;21441;52.190;20.910;2022-11-03T09:29:44;100727.66;;;31.29;26.68
35331;BME280;21441;52.190;20.910;2022-11-03T09:32:13;100720.13;;;31.86;25.94
35331;BME280;21441;52.190;20.910;2022-11-03T09:34:39;100720.88;;;32.53;25.82
35331;BME280;21441;52.190;20.910;2022-11-03T09:37:07;100724.59;;;33.48;24.53
35331;BME280;21441;52.190;20.910;2022-11-03T09:39:33;100716.44;;;34.20;23.82
35331;BME280;21441;52.190;20.910;2022-11-03T09:42:01;100703.84;;;34.53;22.87
35331;BME280;21441;52.190;20.910;2022-11-03T09:44:31;100706.75;;;33.77;23.09
35331;BME280;21441;52.190;20.910;2022-11-03T09:46:59;100711.56;;;32.62;24.25
35331;BME280;21441;52.190;20.910;2022-11-03T09:49:29;100713.00;;;33.91;23.23
35331;BME280;21441;52.190;20.910;2022-11-03T09:51:58;100707.44;;;33.38;24.10
35331;BME280;21441;52.190;20.910;2022-11-03T09:54:25;100699.69;;;34.82;22.87
35331;BME280;21441;52.190;20.910;2022-11-03T09:56:52;100694.56;;;37.04;20.74
35331;BME280;21441;52.190;20.910;2022-11-03T09:59:21;100685.91;;;35.26;21.98
35331;BME280;21441;52.190;20.910;2022-11-03T10:01:50;100689.78;;;32.19;24.60
35331;BME280;21441;52.190;20.910;2022-11-03T10:04:21;100683.06;;;34.25;23.15
35331;BME280;21441;52.190;20.910;2022-11-03T10:06:52;100683.16;;;34.51;22.67
35331;BME280;21441;52.190;20.910;2022-11-03T10:09:19;100692.44;;;29.47;26.95
35331;BME280;21441;52.190;20.910;2022-11-03T10:11:49;100678.94;;;31.05;25.99
35331;BME280;21441;52.190;20.910;2022-11-03T10:14:17;100679.28;;;31.56;25.78
35331;BME280;21441;52.190;20.910;2022-11-03T10:16:51;100676.63;;;34.07;23.12
35331;BME280;21441;52.190;20.910;2022-11-03T10:19:19;100674.34;;;32.60;24.62
35331;BME280;21441;52.190;20.910;2022-11-03T10:21:46;100672.50;;;33.64;23.39
35331;BME280;21441;52.190;20.910;2022-11-03T10:24:14;100664.69;;;34.29;22.73
35331;BME280;21441;52.190;20.910;2022-11-03T10:26:43;100665.47;;;35.57;21.87
35331;BME280;21441;52.190;20.910;2022-11-03T10:29:17;100662.59;;;36.68;20.38
35331;BME280;21441;52.190;20.910;2022-11-03T10:31:47;100658.13;;;37.85;19.31
35331;BME280;21441;52.190;20.910;2022-11-03T10:34:27;100653.25;;;36.43;20.40
35331;BME280;21441;52.190;20.910;2022-11-03T10:37:15;100648.81;;;39.48;18.35
35331;BME280;21441;52.190;20.910;2022-11-03T10:39:49;100655.59;;;40.77;17.23
35331;BME280;21441;52.190;20.910;2022-11-03T10:42:18;100650.69;;;40.04;17.71
35331;BME280;21441;52.190;20.910;2022-11-03T10:44:46;100653.28;;;38.43;18.22
35331;BME280;21441;52.190;20.910;2022-11-03T10:47:30;100647.00;;;40.86;17.20
35331;BME280;21441;52.190;20.910;2022-11-03T10:49:58;100628.53;;;43.30;15.44
35331;BME280;21441;52.190;20.910;2022-11-03T10:52:27;100635.31;;;41.00;16.36
35331;BME280;21441;52.190;20.910;2022-11-03T10:54:57;100635.84;;;40.70;16.66
35331;BME280;21441;52.190;20.910;2022-11-03T10:57:26;100630.63;;;41.47;16.11
35331;BME280;21441;52.190;20.910;2022-11-03T10:59:53;100630.47;;;39.78;16.51
35331;BME280;21441;52.190;20.910;2022-11-03T11:02:22;100631.63;;;36.79;18.40
35331;BME280;21441;52.190;20.910;2022-11-03T11:04:51;100640.00;;;33.25;21.74
35331;BME280;21441;52.190;20.910;2022-11-03T11:07:22;100630.19;;;36.22;19.41
35331;BME280;21441;52.190;20.910;2022-11-03T11:09:51;100625.56;;;38.34;17.83
35331;BME280;21441;52.190;20.910;2022-11-03T11:12:21;100629.50;;;36.54;18.79
35331;BME280;21441;52.190;20.910;2022-11-03T11:14:54;100619.91;;;36.73;18.55
35331;BME280;21441;52.190;20.910;2022-11-03T11:17:44;100617.66;;;38.24;17.97
35331;BME280;21441;52.190;20.910;2022-11-03T11:20:41;100598.41;;;40.36;16.28
35331;BME280;21441;52.190;20.910;2022-11-03T11:26:35;100603.78;;;38.12;17.54
35331;BME280;21441;52.190;20.910;2022-11-03T11:41:00;100586.94;;;39.90;16.51
35331;BME280;21441;52.190;20.910;2022-11-03T11:43:27;100571.22;;;38.41;17.24
35331;BME280;21441;52.190;20.910;2022-11-03T11:49:14;100581.84;;;34.50;19.97
35331;BME280;21441;52.190;20.910;2022-11-03T11:51:43;100577.22;;;33.48;20.33
35331;BME280;21441;52.190;20.910;2022-11-03T11:54:14;100583.81;;;32.43;21.81
35331;BME280;21441;52.190;20.910;2022-11-03T11:56:43;100582.78;;;29.80;24.32
35331;BME280;21441;52.190;20.910;2022-11-03T11:59:18;100588.06;;;27.98;26.09
35331;BME280;21441;52.190;20.910;2022-11-03T12:01:48;100585.09;;;27.64;27.16
35331;BME280;21441;52.190;20.910;2022-11-03T12:04:19;100584.59;;;29.31;25.33
35331;BME280;21441;52.190;20.910;2022-11-03T12:06:48;100592.31;;;28.35;25.69
35331;BME280;21441;52.190;20.910;2022-11-03T12:09:17;100592.69;;;25.59;28.84
35331;BME280;21441;52.190;20.910;2022-11-03T12:11:47;100588.66;;;25.07;29.40
35331;BME280;21441;52.190;20.910;2022-11-03T12:14:21;100581.56;;;26.13;28.37
35331;BME280;21441;52.190;20.910;2022-11-03T12:16:49;100583.84;;;26.42;27.94
35331;BME280;21441;52.190;20.910;2022-11-03T12:19:39;100580.16;;;27.76;26.62
35331;BME280;21441;52.190;20.910;2022-11-03T12:22:09;100579.66;;;27.33;26.69
35331;BME280;21441;52.190;20.910;2022-11-03T12:24:48;100569.81;;;28.88;25.06
35331;BME280;21441;52.190;20.910;2022-11-03T12:27:40;100565.16;;;32.12;22.06
35331;BME280;21441;52.190;20.910;2022-11-03T12:30:14;100549.50;;;31.66;22.37
35331;BME280;21441;52.190;20.910;2022-11-03T12:32:42;100564.00;;;32.55;21.46
35331;BME280;21441;52.190;20.910;2022-11-03T12:35:09;100552.38;;;31.28;22.81
35331;BME280;21441;52.190;20.910;2022-11-03T12:37:39;100560.75;;;30.90;23.03
35331;BME280;21441;52.190;20.910;2022-11-03T12:40:08;100560.94;;;28.62;25.49
35331;BME280;21441;52.190;20.910;2022-11-03T12:42:35;100564.22;;;30.58;23.89
35331;BME280;21441;52.190;20.910;2022-11-03T12:45:02;100555.28;;;30.04;24.16
35331;BME280;21441;52.190;20.910;2022-11-03T12:47:29;100551.00;;;33.14;21.63
35331;BME280;21441;52.190;20.910;2022-11-03T12:49:56;100543.88;;;35.03;20.16
35331;BME280;21441;52.190;20.910;2022-11-03T12:52:23;100537.72;;;34.62;20.37
35331;BME280;21441;52.190;20.910;2022-11-03T12:54:51;100539.13;;;35.29;19.68
35331;BME280;21441;52.190;20.910;2022-11-03T12:57:18;100530.91;;;36.19;18.38
35331;BME280;21441;52.190;20.910;2022-11-03T12:59:45;100532.34;;;34.75;19.96
35331;BME280;21441;52.190;20.910;2022-11-03T13:02:12;100530.75;;;35.85;19.24
35331;BME280;21441;52.190;20.910;2022-11-03T13:04:39;100524.09;;;35.78;19.06
35331;BME280;21441;52.190;20.910;2022-11-03T13:07:06;100534.28;;;33.82;19.96
35331;BME280;21441;52.190;20.910;2022-11-03T13:09:33;100530.69;;;30.94;22.52
35331;BME280;21441;52.190;20.910;2022-11-03T13:12:03;100536.06;;;31.32;22.52
35331;BME280;21441;52.190;20.910;2022-11-03T13:14:47;100530.72;;;31.96;21.73
35331;BME280;21441;52.190;20.910;2022-11-03T13:17:14;100534.59;;;32.22;21.83